Decoded Metar for KOIN (OBERLIN in KS, USA) (IATA:OIN) | Meteo·Mobile Aviation Weather
aviador You're here:

KOIN Decoded Metar

OBERLIN in KS, USA
Report Time2019-01-21 23:55:00
UTC Time2019-01-22 00:10:23
Flight Rules lifr LIFR
Wind050° at 03 kt
W.Decomp.*RWY 35: 1.9 kt HW 2.3 kt RCW
RWY 12: 0.6 kt HW 2.9 kt LCW
Visibility1609 m
Phenomena:Mist
Clouds:Overcast 002 Hf
Ceiling200 ft
Temp-3°C (ISA -13)
Dew Point-3°C (100% RH)
AAT-6.5°C
QNH1002 hPa
Density Alt1,614 ft
Elevation2,703 ft
Report Wrong Elevation
Raw Report
KOIN 212355Z AUTO 05003KT 1SM BR OVC002 M03/M03 A2960 RMK AO1
T10261028=

Extra information for KOIN:More info

Airport Information Weather charts Add Link Nearby Venues Social comments

AIRNAV info for KOIN